createdAt,value
2023-01-19T00:06:08.639Z,998.6
2023-01-19T00:21:43.270Z,998.6
2023-01-19T00:37:17.635Z,998.7
2023-01-19T00:52:51.928Z,999
2023-01-19T01:08:26.239Z,999.1
2023-01-19T01:24:00.497Z,999.1
2023-01-19T01:39:34.778Z,999.3
2023-01-19T01:55:09.138Z,999.3
2023-01-19T02:10:43.383Z,999.4
2023-01-19T02:26:17.670Z,999.3
2023-01-19T02:41:52.066Z,999.3
2023-01-19T02:57:26.444Z,999.2
2023-01-19T03:13:01.098Z,999.3
2023-01-19T03:28:35.521Z,999.3
2023-01-19T03:44:09.934Z,999.3
2023-01-19T03:59:44.273Z,999.4
2023-01-19T04:15:18.577Z,999.5
2023-01-19T04:30:53.080Z,999.7
2023-01-19T04:46:27.789Z,999.6
2023-01-19T05:02:02.215Z,999.5
2023-01-19T05:17:36.857Z,999.6
2023-01-19T05:33:11.258Z,999.7
2023-01-19T05:48:45.559Z,999.8
2023-01-19T06:04:19.922Z,1000
2023-01-19T06:19:54.603Z,1000
2023-01-19T06:35:29.024Z,999.9
2023-01-19T06:51:03.370Z,1000
2023-01-19T07:06:37.663Z,1000.1
2023-01-19T07:22:11.941Z,1000.3
2023-01-19T07:37:46.238Z,1000.6
2023-01-19T07:53:20.764Z,1000.6
2023-01-19T08:08:54.808Z,1000.6
2023-01-19T08:24:29.264Z,1000.5
2023-01-19T08:40:03.793Z,1000.4
2023-01-19T08:55:38.307Z,1000.3
2023-01-19T09:11:12.667Z,1000.2
2023-01-19T09:26:47.053Z,1000.4
2023-01-19T09:42:21.692Z,1000.4
2023-01-19T09:57:56.125Z,1000.3
2023-01-19T10:13:30.828Z,1000.3
2023-01-19T10:29:05.178Z,1000.2
2023-01-19T10:44:39.657Z,1000
2023-01-19T11:00:14.233Z,999.8
2023-01-19T11:15:49.339Z,999.6
2023-01-19T11:31:24.063Z,999.5
2023-01-19T11:46:58.748Z,999.3
2023-01-19T12:02:33.312Z,999.1
2023-01-19T12:18:08.127Z,998.8
2023-01-19T12:33:42.557Z,998.7
2023-01-19T12:49:16.992Z,998.8
2023-01-19T13:04:51.406Z,998.9
2023-01-19T13:20:26.065Z,999
2023-01-19T13:36:00.651Z,999.2
2023-01-19T13:51:35.140Z,999.4
2023-01-19T14:07:09.595Z,999.7
2023-01-19T14:22:44.578Z,999.7
2023-01-19T14:38:19.064Z,999.7
2023-01-19T14:53:53.718Z,999.9
2023-01-19T15:09:28.101Z,999.9
2023-01-19T15:25:02.544Z,1000.1
2023-01-19T15:40:36.911Z,1000.3
2023-01-19T15:56:11.395Z,1000.4
2023-01-19T16:11:45.735Z,1000.4
2023-01-19T16:27:20.117Z,1000.6
2023-01-19T16:42:54.467Z,1000.7
2023-01-19T16:58:28.937Z,1000.8
2023-01-19T17:14:03.285Z,1000.8
2023-01-19T17:29:37.648Z,1001
2023-01-19T17:45:12.027Z,1001.2
2023-01-19T18:00:46.391Z,1001.4
2023-01-19T18:16:21.260Z,1001.5
2023-01-19T18:31:55.802Z,1001.5
2023-01-19T18:47:30.154Z,1001.6
2023-01-19T19:03:04.477Z,1001.6
2023-01-19T19:18:38.888Z,1001.7
2023-01-19T19:34:13.235Z,1001.9
2023-01-19T19:49:47.656Z,1002
2023-01-19T20:05:23.135Z,1002.3
2023-01-19T20:20:57.533Z,1002.4
2023-01-19T20:36:31.987Z,1002.5
2023-01-19T20:52:06.317Z,1002.6
2023-01-19T21:07:40.672Z,1002.8
2023-01-19T21:23:15.007Z,1002.9
2023-01-19T21:38:49.382Z,1003.1
2023-01-19T21:54:26.019Z,1003.2
2023-01-19T22:10:00.379Z,1003.3
2023-01-19T22:25:34.476Z,1003.4
2023-01-19T22:41:08.865Z,1003.5
2023-01-19T22:56:43.218Z,1003.5
2023-01-19T23:12:17.625Z,1003.5
2023-01-19T23:27:51.960Z,1003.7
2023-01-19T23:43:26.321Z,1003.9
2023-01-19T23:59:00.649Z,1004
